Time;durP1;ratioP1;P1;durP2;ratioP2;P2;SDS_P1;SDS_P2;PMS_P1;PMS_P2;Temp;Humidity;BMP_temperature;BMP_pressure;BME280_temperature;BME280_humidity;BME280_pressure;Samples;Min_cycle;Max_cycle;Signal;HPM_P1;HPM_P2
2023/08/03 00:01:45;;;;;;;7.00;1.80;;;;;;;;;;5016603;28;20198;-78
2023/08/03 00:04:10;;;;;;;4.23;2.10;;;;;;;;;;5016734;28;20230;-78
2023/08/03 00:06:35;;;;;;;4.17;1.73;;;;;;;;;;5023019;28;20233;-78
2023/08/03 00:09:01;;;;;;;4.97;1.90;;;;;;;;;;5013314;28;20171;-78
2023/08/03 00:11:28;;;;;;;3.33;1.97;;;;;;;;;;5001278;28;20302;-78
2023/08/03 00:13:53;;;;;;;8.10;2.10;;;;;;;;;;5022703;28;20273;-78
2023/08/03 00:16:18;;;;;;;2.87;1.70;;;;;;;;;;5022941;28;20301;-78
2023/08/03 00:18:43;;;;;;;4.60;1.60;;;;;;;;;;5017408;28;20170;-78
2023/08/03 00:21:08;;;;;;;3.60;1.70;;;;;;;;;;5014110;28;20175;-78
2023/08/03 00:23:34;;;;;;;6.63;1.70;;;;;;;;;;5013586;28;20216;-78
2023/08/03 00:25:59;;;;;;;3.20;1.70;;;;;;;;;;5018241;28;20192;-78
2023/08/03 00:28:24;;;;;;;5.07;2.00;;;;;;;;;;5015776;28;20178;-78
2023/08/03 00:30:49;;;;;;;3.13;1.67;;;;;;;;;;5016946;28;20265;-78
2023/08/03 00:33:14;;;;;;;4.67;1.60;;;;;;;;;;5020185;28;20188;-78
2023/08/03 00:35:40;;;;;;;3.83;1.90;;;;;;;;;;5018058;28;20217;-78
2023/08/03 00:38:05;;;;;;;3.80;1.77;;;;;;;;;;5013747;28;20186;-77
2023/08/03 00:40:30;;;;;;;5.77;2.53;;;;;;;;;;5027854;28;20178;-78
2023/08/03 00:42:56;;;;;;;3.37;1.63;;;;;;;;;;5026493;28;20183;-78
2023/08/03 00:45:21;;;;;;;4.13;1.80;;;;;;;;;;5014161;28;20173;-78
2023/08/03 00:47:46;;;;;;;5.13;1.63;;;;;;;;;;5017042;28;20175;-78
2023/08/03 00:50:11;;;;;;;5.60;1.93;;;;;;;;;;5013648;28;20277;-78
2023/08/03 00:52:38;;;;;;;4.03;1.67;;;;;;;;;;5018511;28;20206;-78
2023/08/03 00:55:03;;;;;;;3.87;1.70;;;;;;;;;;5020493;28;20194;-78
2023/08/03 00:57:28;;;;;;;2.20;1.50;;;;;;;;;;5016785;28;20199;-78
2023/08/03 00:59:54;;;;;;;4.20;1.80;;;;;;;;;;5016515;28;20209;-78
2023/08/03 01:02:20;;;;;;;7.27;2.50;;;;;;;;;;5019097;28;20175;-78
2023/08/03 01:04:45;;;;;;;4.53;2.00;;;;;;;;;;5019379;28;20228;-78
2023/08/03 01:07:10;;;;;;;3.57;1.87;;;;;;;;;;5017097;28;20195;-78
2023/08/03 01:09:36;;;;;;;6.77;1.90;;;;;;;;;;5024641;28;20228;-78
2023/08/03 01:12:01;;;;;;;5.03;1.93;;;;;;;;;;5012885;28;20215;-78
2023/08/03 01:14:26;;;;;;;3.10;1.70;;;;;;;;;;5024190;28;20177;-78
2023/08/03 01:16:52;;;;;;;8.67;2.57;;;;;;;;;;5012253;28;20301;-78
2023/08/03 01:19:17;;;;;;;4.10;2.10;;;;;;;;;;5024056;28;20174;-78
2023/08/03 01:21:43;;;;;;;7.33;2.10;;;;;;;;;;5019803;28;20317;-78
2023/08/03 01:24:08;;;;;;;3.50;1.97;;;;;;;;;;5015815;28;20236;-78
2023/08/03 01:26:33;;;;;;;4.70;1.60;;;;;;;;;;5023309;28;20210;-78
2023/08/03 01:28:58;;;;;;;3.80;1.77;;;;;;;;;;5022802;28;20190;-78
2023/08/03 01:31:24;;;;;;;5.43;1.77;;;;;;;;;;5020988;28;20181;-78
2023/08/03 01:33:49;;;;;;;4.27;1.80;;;;;;;;;;5024285;28;20190;-78
2023/08/03 01:36:14;;;;;;;4.57;1.83;;;;;;;;;;5015517;28;20311;-78
2023/08/03 01:38:40;;;;;;;7.23;2.33;;;;;;;;;;5035995;28;20200;-80
2023/08/03 01:41:05;;;;;;;5.03;1.80;;;;;;;;;;5020355;28;20193;-78
2023/08/03 01:43:31;;;;;;;3.73;1.73;;;;;;;;;;5023605;28;20177;-78
2023/08/03 01:45:56;;;;;;;4.20;1.60;;;;;;;;;;5018320;28;20193;-78
2023/08/03 01:48:21;;;;;;;3.00;1.57;;;;;;;;;;5018173;28;20183;-78
2023/08/03 01:50:46;;;;;;;7.33;1.70;;;;;;;;;;5024934;28;20187;-78
2023/08/03 01:53:15;;;;;;;4.20;1.63;;;;;;;;;;5019875;28;20203;-78
2023/08/03 01:55:40;;;;;;;3.23;1.60;;;;;;;;;;5013082;28;20223;-78
2023/08/03 01:58:06;;;;;;;3.30;1.50;;;;;;;;;;5015309;28;20175;-78
2023/08/03 02:00:31;;;;;;;3.37;1.20;;;;;;;;;;5024466;28;20233;-78
2023/08/03 02:02:56;;;;;;;4.27;1.50;;;;;;;;;;5018751;28;20183;-78
2023/08/03 02:05:21;;;;;;;4.10;1.47;;;;;;;;;;5018092;28;20230;-78
2023/08/03 02:07:53;;;;;;;5.03;1.23;;;;;;;;;;5022741;28;20272;-79
2023/08/03 02:10:18;;;;;;;2.43;1.23;;;;;;;;;;5023423;28;20179;-78
2023/08/03 02:12:43;;;;;;;3.77;1.50;;;;;;;;;;5019655;28;20189;-78
2023/08/03 02:15:09;;;;;;;3.87;1.20;;;;;;;;;;5014599;28;20213;-78
2023/08/03 02:17:34;;;;;;;4.37;1.20;;;;;;;;;;5015540;28;20206;-78
2023/08/03 02:19:59;;;;;;;2.77;1.10;;;;;;;;;;5013965;28;20194;-78
2023/08/03 02:22:25;;;;;;;4.87;1.57;;;;;;;;;;5026976;28;20213;-78
2023/08/03 02:24:50;;;;;;;3.03;1.07;;;;;;;;;;5012544;28;20208;-78
2023/08/03 02:27:15;;;;;;;3.67;1.33;;;;;;;;;;5016150;28;20181;-78
2023/08/03 02:29:40;;;;;;;5.77;1.73;;;;;;;;;;5013879;28;20186;-78
2023/08/03 02:32:06;;;;;;;2.27;1.30;;;;;;;;;;5015405;28;20302;-78
2023/08/03 02:34:31;;;;;;;4.07;1.23;;;;;;;;;;5020744;28;20204;-78
2023/08/03 02:36:56;;;;;;;3.13;1.40;;;;;;;;;;5011816;28;20208;-78
2023/08/03 02:39:21;;;;;;;3.20;1.40;;;;;;;;;;5019070;28;20176;-78
2023/08/03 02:41:47;;;;;;;5.63;1.90;;;;;;;;;;5011640;28;20239;-78
2023/08/03 02:44:12;;;;;;;3.33;1.90;;;;;;;;;;5014467;28;20182;-78
2023/08/03 02:46:37;;;;;;;6.30;2.10;;;;;;;;;;5013404;28;20184;-78
2023/08/03 02:49:02;;;;;;;4.40;2.27;;;;;;;;;;5015731;28;20201;-78
2023/08/03 02:51:28;;;;;;;3.07;1.70;;;;;;;;;;5020844;28;20197;-78
2023/08/03 02:53:53;;;;;;;3.07;1.73;;;;;;;;;;5013592;28;20208;-78
2023/08/03 02:56:18;;;;;;;5.57;1.80;;;;;;;;;;5020919;28;20205;-78
2023/08/03 02:58:43;;;;;;;3.23;1.77;;;;;;;;;;5024114;28;20270;-78
2023/08/03 03:01:08;;;;;;;4.20;1.50;;;;;;;;;;5014333;28;20239;-78
2023/08/03 03:03:33;;;;;;;6.73;2.60;;;;;;;;;;5014826;28;20180;-78
2023/08/03 03:05:59;;;;;;;5.83;1.80;;;;;;;;;;5015386;28;20176;-79
2023/08/03 03:08:24;;;;;;;3.87;1.40;;;;;;;;;;5010187;28;20202;-79
2023/08/03 03:10:49;;;;;;;3.80;1.40;;;;;;;;;;5017002;28;20315;-78
2023/08/03 03:13:14;;;;;;;3.27;1.30;;;;;;;;;;5019550;28;20222;-78
2023/08/03 03:15:39;;;;;;;2.63;1.40;;;;;;;;;;5020258;28;20196;-79
2023/08/03 03:18:05;;;;;;;3.00;1.50;;;;;;;;;;5012987;28;20175;-79
2023/08/03 03:20:30;;;;;;;4.73;1.63;;;;;;;;;;5013280;28;20177;-79
2023/08/03 03:22:55;;;;;;;3.90;1.57;;;;;;;;;;5014121;28;20185;-79
2023/08/03 03:25:21;;;;;;;3.77;1.63;;;;;;;;;;5017849;28;20185;-79
2023/08/03 03:27:46;;;;;;;6.43;1.50;;;;;;;;;;5023534;28;20252;-79
2023/08/03 03:30:11;;;;;;;5.00;1.60;;;;;;;;;;5023150;28;20177;-79
2023/08/03 03:32:36;;;;;;;4.67;1.60;;;;;;;;;;5014107;28;20186;-79
2023/08/03 03:35:02;;;;;;;4.83;2.17;;;;;;;;;;5018425;28;20211;-79
2023/08/03 03:37:27;;;;;;;8.67;2.60;;;;;;;;;;5019848;28;20235;-78
2023/08/03 03:39:53;;;;;;;4.53;1.90;;;;;;;;;;5035482;28;20284;-78
2023/08/03 03:42:18;;;;;;;6.17;2.27;;;;;;;;;;5018803;28;20168;-79
2023/08/03 03:44:43;;;;;;;3.23;2.07;;;;;;;;;;5013482;28;20215;-78
2023/08/03 03:47:08;;;;;;;3.83;1.70;;;;;;;;;;5016418;28;20212;-78
2023/08/03 03:49:34;;;;;;;5.43;2.13;;;;;;;;;;5019040;28;20267;-78
2023/08/03 03:51:59;;;;;;;6.30;2.30;;;;;;;;;;5015376;28;20212;-78
2023/08/03 03:54:24;;;;;;;6.00;2.50;;;;;;;;;;5022949;28;20213;-78
2023/08/03 03:56:49;;;;;;;6.33;2.20;;;;;;;;;;5017329;28;20197;-79
2023/08/03 03:59:14;;;;;;;7.57;2.20;;;;;;;;;;5018388;28;20261;-78
2023/08/03 04:01:40;;;;;;;5.77;2.17;;;;;;;;;;5015707;28;20184;-79
2023/08/03 04:04:05;;;;;;;4.40;2.30;;;;;;;;;;5016046;28;20224;-79
2023/08/03 04:06:32;;;;;;;4.43;2.13;;;;;;;;;;5020412;28;20294;-79
2023/08/03 04:08:58;;;;;;;5.57;2.10;;;;;;;;;;5022325;28;20199;-79
2023/08/03 04:11:23;;;;;;;6.10;2.60;;;;;;;;;;5026616;28;20188;-79
2023/08/03 04:13:48;;;;;;;4.67;2.47;;;;;;;;;;5014128;28;20190;-79
2023/08/03 04:16:13;;;;;;;4.13;2.10;;;;;;;;;;5018313;28;20203;-78
2023/08/03 04:18:39;;;;;;;5.47;2.50;;;;;;;;;;5028862;28;20233;-78
2023/08/03 04:21:04;;;;;;;4.77;1.90;;;;;;;;;;5028933;28;20180;-78
2023/08/03 04:23:29;;;;;;;3.23;1.50;;;;;;;;;;5018965;28;20179;-78
2023/08/03 04:25:55;;;;;;;4.87;1.83;;;;;;;;;;5021974;28;20184;-78
2023/08/03 04:28:20;;;;;;;5.03;1.70;;;;;;;;;;5022460;28;20238;-78
2023/08/03 04:30:45;;;;;;;5.37;1.70;;;;;;;;;;5015012;28;20208;-78
2023/08/03 04:33:10;;;;;;;3.27;1.80;;;;;;;;;;5025800;28;20190;-78
2023/08/03 04:35:35;;;;;;;4.83;1.83;;;;;;;;;;5017130;28;20194;-78
2023/08/03 04:38:01;;;;;;;4.07;1.83;;;;;;;;;;5011690;28;20229;-78
2023/08/03 04:40:26;;;;;;;2.30;1.40;;;;;;;;;;5018315;28;20201;-78
2023/08/03 04:42:51;;;;;;;3.33;1.20;;;;;;;;;;5019265;28;20200;-78
2023/08/03 04:45:16;;;;;;;5.23;2.13;;;;;;;;;;5027700;28;20172;-78
2023/08/03 04:47:41;;;;;;;3.03;1.60;;;;;;;;;;5020293;28;20193;-78
2023/08/03 04:50:07;;;;;;;3.77;1.80;;;;;;;;;;5014635;28;20207;-78
2023/08/03 04:52:32;;;;;;;3.57;2.07;;;;;;;;;;5023340;28;20241;-78
2023/08/03 04:54:57;;;;;;;2.50;1.67;;;;;;;;;;5016435;28;20188;-78
2023/08/03 04:57:22;;;;;;;1.73;1.10;;;;;;;;;;5023056;28;20213;-78
2023/08/03 04:59:47;;;;;;;4.40;1.90;;;;;;;;;;5014217;28;20178;-78
2023/08/03 05:02:13;;;;;;;5.40;1.50;;;;;;;;;;5025427;28;20187;-78
2023/08/03 05:04:38;;;;;;;3.00;1.27;;;;;;;;;;5026240;28;20280;-77
2023/08/03 05:07:03;;;;;;;3.90;1.50;;;;;;;;;;5020188;28;20222;-78
2023/08/03 05:09:28;;;;;;;2.80;1.37;;;;;;;;;;5016055;28;20195;-78
2023/08/03 05:11:54;;;;;;;3.30;1.63;;;;;;;;;;5026973;28;20181;-78
2023/08/03 05:14:19;;;;;;;4.20;1.20;;;;;;;;;;5025135;28;20185;-77
2023/08/03 05:16:44;;;;;;;4.27;1.33;;;;;;;;;;5012052;28;20203;-78
2023/08/03 05:19:09;;;;;;;2.43;1.17;;;;;;;;;;5018817;28;20256;-78
2023/08/03 05:21:34;;;;;;;2.93;1.20;;;;;;;;;;5013861;28;20173;-78
2023/08/03 05:23:59;;;;;;;2.30;1.33;;;;;;;;;;5021478;28;20208;-78
2023/08/03 05:26:26;;;;;;;11.37;3.50;;;;;;;;;;5016350;28;20183;-78
2023/08/03 05:28:51;;;;;;;5.97;1.90;;;;;;;;;;5013150;28;20185;-78
2023/08/03 05:31:16;;;;;;;34.73;6.80;;;;;;;;;;5017609;28;20184;-78
2023/08/03 05:33:41;;;;;;;9.40;2.37;;;;;;;;;;5013886;28;20189;-78
2023/08/03 05:36:08;;;;;;;4.33;1.97;;;;;;;;;;5024873;28;20200;-78
2023/08/03 05:38:33;;;;;;;1.33;0.80;;;;;;;;;;5019311;28;20172;-78
2023/08/03 05:40:58;;;;;;;4.00;0.90;;;;;;;;;;5024182;28;20190;-78
2023/08/03 05:43:24;;;;;;;1.70;1.27;;;;;;;;;;5019877;28;20178;-78
2023/08/03 05:45:52;;;;;;;5.90;2.17;;;;;;;;;;5028913;28;20193;-78
2023/08/03 05:48:19;;;;;;;2.03;1.23;;;;;;;;;;5034183;28;20232;-78
2023/08/03 05:50:45;;;;;;;1.60;0.70;;;;;;;;;;5025292;28;20187;-78
2023/08/03 05:53:10;;;;;;;2.67;0.90;;;;;;;;;;5019343;28;20205;-78
2023/08/03 05:55:35;;;;;;;0.97;0.83;;;;;;;;;;5013734;28;20184;-78
2023/08/03 05:58:01;;;;;;;0.30;0.30;;;;;;;;;;5021247;28;20176;-78
2023/08/03 06:00:27;;;;;;;0.60;0.60;;;;;;;;;;5025869;28;20267;-78
2023/08/03 06:02:53;;;;;;;0.73;0.47;;;;;;;;;;5011583;28;20207;-78
2023/08/03 06:05:37;;;;;;;0.43;0.43;;;;;;;;;;5016339;28;20226;-77
2023/08/03 06:08:09;;;;;;;2.40;1.10;;;;;;;;;;5013188;28;20182;-78
2023/08/03 06:10:34;;;;;;;1.43;0.70;;;;;;;;;;5015681;28;20180;-78
2023/08/03 06:12:59;;;;;;;1.20;0.97;;;;;;;;;;5017306;28;20201;-78
2023/08/03 06:15:24;;;;;;;2.23;0.97;;;;;;;;;;5022311;28;20180;-78
2023/08/03 06:17:50;;;;;;;2.20;1.10;;;;;;;;;;5019774;28;20266;-78
2023/08/03 06:20:16;;;;;;;0.93;0.90;;;;;;;;;;5010706;28;20181;-78
2023/08/03 06:22:41;;;;;;;2.10;1.27;;;;;;;;;;5015271;28;20213;-78
2023/08/03 06:25:09;;;;;;;2.97;1.30;;;;;;;;;;5012612;28;20222;-78
2023/08/03 06:27:35;;;;;;;5.20;1.37;;;;;;;;;;5016298;28;20179;-78
2023/08/03 06:30:00;;;;;;;4.10;1.77;;;;;;;;;;5011417;28;20187;-78
2023/08/03 06:32:28;;;;;;;1.47;1.23;;;;;;;;;;5017160;28;20183;-78
2023/08/03 06:34:54;;;;;;;1.70;1.20;;;;;;;;;;5025230;28;20302;-78
2023/08/03 06:37:19;;;;;;;4.10;1.50;;;;;;;;;;5014401;28;20202;-77
2023/08/03 06:39:48;;;;;;;3.87;1.30;;;;;;;;;;5022906;28;20272;-78
2023/08/03 06:42:14;;;;;;;1.90;1.10;;;;;;;;;;5010871;28;20191;-78
2023/08/03 06:44:39;;;;;;;2.27;1.70;;;;;;;;;;5020230;28;20176;-72
2023/08/03 06:47:04;;;;;;;2.70;1.40;;;;;;;;;;5020915;28;20190;-73
2023/08/03 06:49:30;;;;;;;3.33;1.27;;;;;;;;;;5022914;28;20190;-73
2023/08/03 06:51:55;;;;;;;2.30;1.43;;;;;;;;;;5015068;28;20191;-74
2023/08/03 06:54:20;;;;;;;3.10;1.47;;;;;;;;;;5026159;28;20199;-73
2023/08/03 06:56:45;;;;;;;3.13;1.50;;;;;;;;;;5020079;28;20201;-73
2023/08/03 06:59:13;;;;;;;2.20;1.20;;;;;;;;;;5017613;28;20328;-73
2023/08/03 07:01:38;;;;;;;3.73;1.30;;;;;;;;;;5026687;28;20176;-73
2023/08/03 07:04:04;;;;;;;2.97;1.60;;;;;;;;;;5016630;28;20228;-73
2023/08/03 07:06:29;;;;;;;3.50;1.67;;;;;;;;;;5021869;28;20180;-73
2023/08/03 07:08:54;;;;;;;1.53;1.20;;;;;;;;;;5018298;28;20188;-74
2023/08/03 07:11:20;;;;;;;7.27;2.27;;;;;;;;;;5016921;28;20184;-73
2023/08/03 07:13:45;;;;;;;4.07;1.50;;;;;;;;;;5022691;28;20239;-73
2023/08/03 07:16:10;;;;;;;3.90;1.50;;;;;;;;;;5021340;28;20247;-73
2023/08/03 07:18:36;;;;;;;3.53;1.47;;;;;;;;;;5020944;28;20166;-73
2023/08/03 07:21:05;;;;;;;2.83;1.60;;;;;;;;;;5028587;28;20183;-73
2023/08/03 07:23:30;;;;;;;2.93;1.03;;;;;;;;;;5014963;28;20195;-72
2023/08/03 07:25:55;;;;;;;2.87;1.77;;;;;;;;;;5028520;28;20208;-73
2023/08/03 07:28:21;;;;;;;1.37;1.20;;;;;;;;;;5027333;28;20284;-73
2023/08/03 07:30:46;;;;;;;3.17;1.30;;;;;;;;;;5027977;28;20186;-73
2023/08/03 07:33:11;;;;;;;1.70;1.17;;;;;;;;;;5014428;28;20181;-73
2023/08/03 07:35:37;;;;;;;3.23;1.30;;;;;;;;;;5017040;28;20208;-73
2023/08/03 07:38:02;;;;;;;2.60;1.00;;;;;;;;;;5015776;28;20213;-73
2023/08/03 07:40:27;;;;;;;5.07;1.83;;;;;;;;;;5014617;28;20224;-73
2023/08/03 07:42:52;;;;;;;3.27;1.30;;;;;;;;;;5017183;28;20177;-73
2023/08/03 07:45:18;;;;;;;3.60;1.40;;;;;;;;;;5022397;28;20176;-73
2023/08/03 07:47:43;;;;;;;2.60;1.13;;;;;;;;;;5017860;28;20181;-73
2023/08/03 07:50:08;;;;;;;5.03;1.77;;;;;;;;;;5013751;28;20178;-73
2023/08/03 07:52:33;;;;;;;2.70;1.30;;;;;;;;;;5017098;28;20256;-73
2023/08/03 07:54:59;;;;;;;1.97;1.43;;;;;;;;;;5021434;28;20181;-73
2023/08/03 07:57:24;;;;;;;3.70;1.47;;;;;;;;;;5022687;28;20344;-73
2023/08/03 07:59:50;;;;;;;5.50;2.20;;;;;;;;;;5019766;28;20199;-73
2023/08/03 08:02:15;;;;;;;6.27;1.87;;;;;;;;;;5019115;28;20181;-73
2023/08/03 08:04:40;;;;;;;2.47;1.50;;;;;;;;;;5023357;28;20219;-73
2023/08/03 08:07:05;;;;;;;3.53;1.63;;;;;;;;;;5022176;28;20185;-73
2023/08/03 08:09:31;;;;;;;3.97;1.60;;;;;;;;;;5019818;28;20179;-73
2023/08/03 08:11:56;;;;;;;2.97;1.30;;;;;;;;;;5014338;28;20187;-73
2023/08/03 08:14:21;;;;;;;9.47;2.30;;;;;;;;;;5023043;28;20183;-73
2023/08/03 08:16:46;;;;;;;4.97;1.50;;;;;;;;;;5016162;28;20266;-73
2023/08/03 08:19:11;;;;;;;2.47;1.53;;;;;;;;;;5014681;28;20172;-73
2023/08/03 08:21:37;;;;;;;7.87;1.83;;;;;;;;;;5017416;28;20181;-73
2023/08/03 08:24:02;;;;;;;3.23;1.80;;;;;;;;;;5022317;28;20174;-73
2023/08/03 08:26:28;;;;;;;4.67;1.50;;;;;;;;;;5016056;28;20203;-73
2023/08/03 08:28:56;;;;;;;5.27;2.07;;;;;;;;;;5016111;28;20285;-73
2023/08/03 08:31:22;;;;;;;2.40;1.60;;;;;;;;;;5020542;28;20168;-73
2023/08/03 08:33:47;;;;;;;1.93;1.30;;;;;;;;;;5022317;28;20191;-73
2023/08/03 08:36:12;;;;;;;2.17;1.33;;;;;;;;;;5016405;28;20255;-73
2023/08/03 08:38:37;;;;;;;2.80;1.60;;;;;;;;;;5021710;28;20177;-73
2023/08/03 08:41:03;;;;;;;1.93;1.30;;;;;;;;;;5013830;28;20185;-73
2023/08/03 08:43:29;;;;;;;8.37;1.73;;;;;;;;;;5017784;28;20175;-73
2023/08/03 08:45:54;;;;;;;3.27;1.57;;;;;;;;;;5015757;28;20210;-75
2023/08/03 08:48:19;;;;;;;3.43;1.37;;;;;;;;;;5025226;28;20178;-73
2023/08/03 08:50:45;;;;;;;2.73;1.40;;;;;;;;;;5017657;28;20203;-73
2023/08/03 08:53:12;;;;;;;8.07;1.33;;;;;;;;;;5016369;28;20282;-73
2023/08/03 08:55:38;;;;;;;4.80;1.60;;;;;;;;;;5017668;28;20179;-73
2023/08/03 08:58:03;;;;;;;1.87;1.07;;;;;;;;;;5013303;28;20198;-73
2023/08/03 09:00:28;;;;;;;3.73;1.03;;;;;;;;;;5019103;28;20172;-73
2023/08/03 09:02:55;;;;;;;2.50;1.27;;;;;;;;;;5022198;28;20184;-73
2023/08/03 09:05:21;;;;;;;1.83;1.10;;;;;;;;;;5015351;28;20287;-74
2023/08/03 09:07:58;;;;;;;1.70;0.77;;;;;;;;;;5016024;28;20218;-73
2023/08/03 09:10:23;;;;;;;1.07;0.80;;;;;;;;;;5014033;28;20167;-73
2023/08/03 09:12:48;;;;;;;2.73;1.33;;;;;;;;;;5015012;28;20187;-73
2023/08/03 09:15:13;;;;;;;1.63;1.20;;;;;;;;;;5016250;28;20191;-73
2023/08/03 09:17:39;;;;;;;1.97;1.03;;;;;;;;;;5014438;28;20221;-73
2023/08/03 09:20:04;;;;;;;0.93;0.83;;;;;;;;;;5018318;28;20210;-73
2023/08/03 09:22:40;;;;;;;1.63;0.73;;;;;;;;;;5017669;28;20221;-73
2023/08/03 09:25:06;;;;;;;3.60;1.10;;;;;;;;;;5017960;28;20185;-74
2023/08/03 09:27:32;;;;;;;2.10;0.90;;;;;;;;;;5016753;28;20190;-73
2023/08/03 09:30:00;;;;;;;3.80;1.10;;;;;;;;;;5016566;28;20187;-73
2023/08/03 09:32:34;;;;;;;1.00;0.90;;;;;;;;;;5027813;28;20171;-73
2023/08/03 09:34:59;;;;;;;1.73;0.90;;;;;;;;;;5021060;28;20188;-73
2023/08/03 09:37:32;;;;;;;2.00;1.00;;;;;;;;;;5022301;28;20202;-76
2023/08/03 09:39:58;;;;;;;1.73;0.80;;;;;;;;;;5017017;28;20242;-73
2023/08/03 09:42:24;;;;;;;1.27;0.80;;;;;;;;;;5012082;28;20205;-73
2023/08/03 09:44:50;;;;;;;2.27;1.03;;;;;;;;;;5021090;28;20174;-73
2023/08/03 09:47:16;;;;;;;2.90;0.90;;;;;;;;;;5018702;28;20190;-73
2023/08/03 09:49:42;;;;;;;1.03;0.67;;;;;;;;;;5025076;28;20182;-73
2023/08/03 09:52:10;;;;;;;2.23;1.10;;;;;;;;;;5021176;28;20175;-73
2023/08/03 09:54:38;;;;;;;3.73;1.40;;;;;;;;;;5011401;28;20204;-73
2023/08/03 09:57:09;;;;;;;2.13;0.90;;;;;;;;;;5016927;28;20235;-73
2023/08/03 09:59:36;;;;;;;2.47;0.97;;;;;;;;;;5019537;28;20196;-73
2023/08/03 10:02:02;;;;;;;3.27;1.23;;;;;;;;;;5021690;28;20266;-73
2023/08/03 10:04:29;;;;;;;1.17;0.80;;;;;;;;;;5013059;28;20317;-73
2023/08/03 10:06:59;;;;;;;1.33;1.00;;;;;;;;;;5011711;28;20217;-73
2023/08/03 10:09:24;;;;;;;4.10;1.30;;;;;;;;;;5019093;28;20205;-73
2023/08/03 10:11:52;;;;;;;1.40;0.90;;;;;;;;;;5023550;28;20188;-73
2023/08/03 10:14:21;;;;;;;1.97;0.80;;;;;;;;;;5015535;28;20179;-73
2023/08/03 10:16:47;;;;;;;2.90;1.00;;;;;;;;;;5015624;28;20208;-73
2023/08/03 10:19:13;;;;;;;1.83;1.10;;;;;;;;;;5015686;28;20233;-75
2023/08/03 10:21:38;;;;;;;3.60;0.97;;;;;;;;;;5017027;28;20177;-73
2023/08/03 10:24:07;;;;;;;1.30;0.70;;;;;;;;;;5016037;28;20214;-73
2023/08/03 10:26:32;;;;;;;1.23;0.93;;;;;;;;;;5023537;28;20181;-73
2023/08/03 10:28:58;;;;;;;1.30;1.00;;;;;;;;;;5030376;28;20180;-73
2023/08/03 10:31:23;;;;;;;2.67;1.20;;;;;;;;;;5027268;28;20270;-73
2023/08/03 10:33:51;;;;;;;1.87;1.20;;;;;;;;;;5011673;28;20180;-73
2023/08/03 10:36:26;;;;;;;2.20;1.07;;;;;;;;;;5021712;28;20209;-73
2023/08/03 10:38:51;;;;;;;3.00;1.00;;;;;;;;;;5015716;28;20182;-73
2023/08/03 10:41:21;;;;;;;1.30;0.97;;;;;;;;;;5026261;28;20178;-73
2023/08/03 10:44:06;;;;;;;0.67;0.67;;;;;;;;;;5015840;28;20173;-73
2023/08/03 10:46:31;;;;;;;1.60;1.10;;;;;;;;;;5017976;28;20180;-73
2023/08/03 10:48:57;;;;;;;1.90;1.30;;;;;;;;;;5016993;28;20184;-73
2023/08/03 10:51:22;;;;;;;4.67;1.13;;;;;;;;;;5023020;28;20189;-73
2023/08/03 10:53:48;;;;;;;3.80;0.93;;;;;;;;;;5018911;28;20202;-73
2023/08/03 10:56:14;;;;;;;2.67;1.10;;;;;;;;;;5012176;28;20197;-73
2023/08/03 10:58:47;;;;;;;1.70;1.03;;;;;;;;;;5023077;28;20284;-73
2023/08/03 11:01:13;;;;;;;3.63;1.00;;;;;;;;;;5013323;28;20206;-73
2023/08/03 11:03:38;;;;;;;2.60;1.20;;;;;;;;;;5017237;28;20181;-73
2023/08/03 11:06:03;;;;;;;2.00;0.90;;;;;;;;;;5020924;28;20215;-73
2023/08/03 11:08:29;;;;;;;2.17;0.93;;;;;;;;;;5015160;28;20182;-73
2023/08/03 11:10:54;;;;;;;1.97;1.00;;;;;;;;;;5041257;28;20243;-73
2023/08/03 11:13:20;;;;;;;2.87;0.77;;;;;;;;;;5020270;28;20193;-73
2023/08/03 11:15:45;;;;;;;1.23;1.03;;;;;;;;;;5016762;28;20189;-73
2023/08/03 11:18:16;;;;;;;1.63;1.03;;;;;;;;;;5014382;28;20274;-73
2023/08/03 11:20:41;;;;;;;2.53;0.80;;;;;;;;;;5021612;28;20184;-73
2023/08/03 11:23:10;;;;;;;2.40;1.53;;;;;;;;;;5021477;28;20175;-73
2023/08/03 11:25:35;;;;;;;1.13;0.87;;;;;;;;;;5036967;28;20189;-73
2023/08/03 11:28:01;;;;;;;2.87;1.10;;;;;;;;;;5012065;28;20177;-73
2023/08/03 11:30:27;;;;;;;1.60;1.10;;;;;;;;;;5021213;28;20188;-73
2023/08/03 11:32:58;;;;;;;2.30;1.10;;;;;;;;;;5014938;28;20253;-73
2023/08/03 11:35:24;;;;;;;1.23;0.80;;;;;;;;;;5014416;28;20209;-73
2023/08/03 11:37:49;;;;;;;2.80;1.10;;;;;;;;;;5014344;28;20203;-73
2023/08/03 11:40:14;;;;;;;1.30;0.93;;;;;;;;;;5015110;28;20235;-73
2023/08/03 11:42:42;;;;;;;1.83;0.77;;;;;;;;;;5018276;28;20187;-73
2023/08/03 11:45:08;;;;;;;1.40;1.00;;;;;;;;;;5020055;28;20178;-73
2023/08/03 11:47:43;;;;;;;4.20;1.33;;;;;;;;;;5015998;28;20233;-73
2023/08/03 11:50:08;;;;;;;1.87;1.07;;;;;;;;;;5021771;28;20236;-73
2023/08/03 11:52:33;;;;;;;1.80;0.83;;;;;;;;;;5024440;28;20183;-73
2023/08/03 11:54:59;;;;;;;0.83;0.70;;;;;;;;;;5021639;28;20194;-73
2023/08/03 12:00:09;;;;;;;5.53;1.03;;;;;;;;;;5019786;28;20261;-73
2023/08/03 12:02:37;;;;;;;1.03;0.93;;;;;;;;;;5016552;28;20177;-73
2023/08/03 12:05:03;;;;;;;1.80;0.90;;;;;;;;;;5019609;28;20309;-73
2023/08/03 12:07:28;;;;;;;0.97;0.70;;;;;;;;;;5019947;28;20276;-73
2023/08/03 12:09:53;;;;;;;3.23;0.90;;;;;;;;;;5014376;28;20189;-73
2023/08/03 12:12:19;;;;;;;2.37;0.90;;;;;;;;;;5018051;28;20185;-73
2023/08/03 12:14:44;;;;;;;1.90;1.00;;;;;;;;;;5027437;28;20231;-73
2023/08/03 12:17:11;;;;;;;1.17;0.60;;;;;;;;;;5015853;28;20224;-73
2023/08/03 12:19:38;;;;;;;2.47;0.93;;;;;;;;;;5020751;28;20182;-73
2023/08/03 12:22:03;;;;;;;2.50;1.00;;;;;;;;;;5035512;28;20251;-73
2023/08/03 12:24:29;;;;;;;5.50;1.20;;;;;;;;;;5016560;28;20189;-73
2023/08/03 12:26:54;;;;;;;0.70;0.70;;;;;;;;;;5017322;28;20196;-73
2023/08/03 12:29:19;;;;;;;3.13;1.10;;;;;;;;;;5026931;28;20186;-73
2023/08/03 12:31:44;;;;;;;3.17;1.17;;;;;;;;;;5023523;28;20187;-73
2023/08/03 12:34:10;;;;;;;4.50;1.30;;;;;;;;;;5017095;28;20185;-72
2023/08/03 12:36:35;;;;;;;3.43;1.30;;;;;;;;;;5019552;28;20214;-73
2023/08/03 12:39:00;;;;;;;1.13;0.93;;;;;;;;;;5020322;28;20176;-73
2023/08/03 12:41:25;;;;;;;1.43;1.07;;;;;;;;;;5027814;28;20267;-73
2023/08/03 12:43:51;;;;;;;1.23;0.83;;;;;;;;;;5016857;28;20181;-73
2023/08/03 12:46:16;;;;;;;1.43;1.00;;;;;;;;;;5017297;28;20281;-73
2023/08/03 12:48:42;;;;;;;1.73;1.23;;;;;;;;;;5021111;28;20194;-73
2023/08/03 12:51:07;;;;;;;3.20;1.23;;;;;;;;;;5025238;28;20186;-73
2023/08/03 12:53:32;;;;;;;3.40;1.53;;;;;;;;;;5020933;28;20199;-73
2023/08/03 12:55:57;;;;;;;1.50;1.20;;;;;;;;;;5022192;28;20186;-73
2023/08/03 12:58:23;;;;;;;1.50;1.07;;;;;;;;;;5021638;28;20224;-73
2023/08/03 13:00:48;;;;;;;1.87;0.80;;;;;;;;;;5020186;28;20183;-73
2023/08/03 13:03:13;;;;;;;2.63;1.00;;;;;;;;;;5017244;28;20199;-73
2023/08/03 13:05:38;;;;;;;3.27;1.10;;;;;;;;;;5020732;28;20269;-73
2023/08/03 13:08:04;;;;;;;2.07;1.10;;;;;;;;;;5022318;28;20236;-73
2023/08/03 13:10:29;;;;;;;1.40;0.90;;;;;;;;;;5016891;28;20182;-73
2023/08/03 13:12:54;;;;;;;1.80;1.07;;;;;;;;;;5021696;28;20184;-73
2023/08/03 13:15:19;;;;;;;1.10;1.00;;;;;;;;;;5016761;28;20182;-73
2023/08/03 13:17:45;;;;;;;2.10;0.90;;;;;;;;;;5016929;28;20309;-73
2023/08/03 13:20:10;;;;;;;1.50;1.00;;;;;;;;;;5019240;28;20310;-73
2023/08/03 13:22:36;;;;;;;3.07;1.00;;;;;;;;;;5029761;28;20271;-73
2023/08/03 13:25:01;;;;;;;1.87;1.17;;;;;;;;;;5018692;28;20182;-73
2023/08/03 13:27:27;;;;;;;3.03;1.20;;;;;;;;;;5023354;28;20190;-73
2023/08/03 13:29:53;;;;;;;2.10;1.40;;;;;;;;;;5021417;28;20241;-73
2023/08/03 13:32:18;;;;;;;2.63;1.03;;;;;;;;;;5013670;28;20282;-73
2023/08/03 13:34:43;;;;;;;1.33;1.07;;;;;;;;;;5020485;28;20200;-73
2023/08/03 13:37:09;;;;;;;2.03;0.97;;;;;;;;;;5026714;28;20206;-73
2023/08/03 13:39:34;;;;;;;2.43;1.17;;;;;;;;;;5011993;28;20222;-73
2023/08/03 13:41:59;;;;;;;1.77;1.20;;;;;;;;;;5020057;28;20174;-73
2023/08/03 13:44:25;;;;;;;2.47;1.33;;;;;;;;;;5013182;28;20230;-73
2023/08/03 13:46:50;;;;;;;2.10;1.20;;;;;;;;;;5016916;28;20182;-73
2023/08/03 13:49:15;;;;;;;1.57;1.03;;;;;;;;;;5013150;28;20186;-73
2023/08/03 13:51:40;;;;;;;1.00;1.00;;;;;;;;;;5019653;28;20279;-73
2023/08/03 13:54:05;;;;;;;0.93;0.90;;;;;;;;;;5024769;28;20207;-73
2023/08/03 13:56:31;;;;;;;1.40;1.17;;;;;;;;;;5020427;28;20204;-73
2023/08/03 13:58:56;;;;;;;2.90;1.60;;;;;;;;;;5016263;28;20202;-73
2023/08/03 14:01:21;;;;;;;3.10;1.43;;;;;;;;;;5018594;28;20179;-73
2023/08/03 14:03:46;;;;;;;1.63;1.30;;;;;;;;;;5023935;28;20203;-73
2023/08/03 14:06:12;;;;;;;1.10;1.00;;;;;;;;;;5011763;28;20182;-73
2023/08/03 14:08:37;;;;;;;2.67;1.17;;;;;;;;;;5014960;28;20267;-73
2023/08/03 14:11:04;;;;;;;1.43;1.20;;;;;;;;;;5019783;28;20200;-73
2023/08/03 14:13:29;;;;;;;1.20;1.10;;;;;;;;;;5027289;28;20247;-73
2023/08/03 14:15:54;;;;;;;1.33;1.13;;;;;;;;;;5020866;28;20179;-73
2023/08/03 14:18:19;;;;;;;2.60;1.10;;;;;;;;;;5023827;28;20190;-73
2023/08/03 14:20:44;;;;;;;1.27;0.90;;;;;;;;;;5016566;28;20193;-73
2023/08/03 14:23:10;;;;;;;1.43;0.83;;;;;;;;;;5018727;28;20190;-73
2023/08/03 14:25:35;;;;;;;2.80;1.17;;;;;;;;;;5014141;28;20192;-73
2023/08/03 14:28:00;;;;;;;1.07;0.97;;;;;;;;;;5017955;28;20253;-73
2023/08/03 14:30:25;;;;;;;1.47;0.87;;;;;;;;;;5015120;28;20189;-73
2023/08/03 14:32:50;;;;;;;1.20;1.10;;;;;;;;;;5012663;28;20213;-73
2023/08/03 14:35:16;;;;;;;3.13;0.87;;;;;;;;;;5015855;28;20184;-73
2023/08/03 14:37:42;;;;;;;1.97;1.00;;;;;;;;;;5019751;28;20297;-73